createdAt,value
2023-03-10T00:02:24.698Z,2.90
2023-03-10T00:04:54.352Z,2.90
2023-03-10T00:07:22.254Z,2.80
2023-03-10T00:09:50.127Z,2.70
2023-03-10T00:12:18.030Z,2.70
2023-03-10T00:14:45.819Z,2.60
2023-03-10T00:17:13.686Z,2.60
2023-03-10T00:19:41.552Z,2.60
2023-03-10T00:22:10.765Z,2.60
2023-03-10T00:24:38.562Z,2.50
2023-03-10T00:27:06.551Z,2.40
2023-03-10T00:29:34.389Z,2.50
2023-03-10T00:32:03.243Z,2.50
2023-03-10T00:34:31.173Z,2.50
2023-03-10T00:36:59.168Z,2.50
2023-03-10T00:39:28.429Z,2.50
2023-03-10T00:41:56.241Z,2.50
2023-03-10T00:44:24.157Z,2.50
2023-03-10T00:46:52.045Z,2.40
2023-03-10T00:49:19.834Z,2.40
2023-03-10T00:51:48.748Z,2.40
2023-03-10T00:54:16.588Z,2.40
2023-03-10T00:56:45.791Z,2.40
2023-03-10T00:59:13.974Z,2.40
2023-03-10T01:01:43.483Z,2.40
2023-03-10T01:04:14.964Z,2.40
2023-03-10T01:06:44.467Z,2.40
2023-03-10T01:09:12.423Z,2.40
2023-03-10T01:11:40.694Z,2.40
2023-03-10T01:14:12.401Z,2.40
2023-03-10T01:16:40.335Z,2.40
2023-03-10T01:19:08.144Z,2.30
2023-03-10T01:21:38.341Z,2.30
2023-03-10T01:24:07.827Z,2.30
2023-03-10T01:26:36.800Z,2.20
2023-03-10T01:29:04.794Z,2.20
2023-03-10T01:31:34.051Z,2.20
2023-03-10T01:34:03.467Z,2.20
2023-03-10T01:36:31.430Z,2.10
2023-03-10T01:39:00.278Z,2.20
2023-03-10T01:41:28.180Z,2.20
2023-03-10T01:43:57.794Z,2.10
2023-03-10T01:46:50.295Z,2.10
2023-03-10T01:49:28.745Z,2.10
2023-03-10T01:52:02.086Z,2.10
2023-03-10T01:54:37.091Z,2.10
2023-03-10T01:57:06.124Z,2.10
2023-03-10T01:59:35.405Z,2.00
2023-03-10T02:02:05.312Z,2.10
2023-03-10T02:04:39.987Z,2.00
2023-03-10T02:07:08.653Z,2.00
2023-03-10T02:09:40.270Z,2.00
2023-03-10T02:12:10.494Z,2.10
2023-03-10T02:14:38.686Z,2.10
2023-03-10T02:17:11.160Z,2.10
2023-03-10T02:19:57.321Z,2.00
2023-03-10T02:22:25.363Z,2.10
2023-03-10T02:24:59.227Z,2.10
2023-03-10T02:27:32.236Z,2.10
2023-03-10T02:30:04.163Z,2.00
2023-03-10T02:32:39.098Z,2.00
2023-03-10T02:35:07.744Z,2.00
2023-03-10T02:37:41.832Z,2.00
2023-03-10T02:40:32.334Z,2.00
2023-03-10T02:43:06.707Z,2.10
2023-03-10T02:45:38.755Z,2.10
2023-03-10T02:48:09.472Z,2.10
2023-03-10T02:50:40.554Z,2.00
2023-03-10T02:53:12.553Z,2.00
2023-03-10T02:55:40.955Z,2.00
2023-03-10T02:58:10.897Z,2.00
2023-03-10T03:00:40.695Z,2.00
2023-03-10T03:03:10.414Z,2.00
2023-03-10T03:05:38.795Z,2.00
2023-03-10T03:08:08.485Z,2.00
2023-03-10T03:10:37.867Z,2.00
2023-03-10T03:13:07.021Z,1.90
2023-03-10T03:15:37.227Z,2.00
2023-03-10T03:18:05.837Z,2.00
2023-03-10T03:20:38.281Z,2.00
2023-03-10T03:23:06.860Z,2.10
2023-03-10T03:25:37.663Z,1.90
2023-03-10T03:28:06.729Z,2.00
2023-03-10T03:30:36.602Z,1.80
2023-03-10T03:33:06.535Z,1.80
2023-03-10T03:35:38.285Z,1.90
2023-03-10T03:38:08.369Z,1.80
2023-03-10T03:40:38.666Z,1.80
2023-03-10T03:43:07.231Z,1.80
2023-03-10T03:45:37.408Z,1.80
2023-03-10T03:48:06.000Z,1.80
2023-03-10T03:50:36.413Z,1.80
2023-03-10T03:53:11.011Z,1.80
2023-03-10T03:55:39.407Z,1.70
2023-03-10T03:58:07.632Z,1.70
2023-03-10T04:00:38.522Z,1.70
2023-03-10T04:03:08.442Z,1.80
2023-03-10T04:05:36.927Z,1.80
2023-03-10T04:08:05.794Z,1.70
2023-03-10T04:10:33.730Z,1.70
2023-03-10T04:13:02.106Z,1.70
2023-03-10T04:15:30.852Z,1.70
2023-03-10T04:18:01.372Z,1.80
2023-03-10T04:20:29.694Z,1.70
2023-03-10T04:22:57.538Z,1.80
2023-03-10T04:25:30.794Z,1.70
2023-03-10T04:27:59.006Z,1.70
2023-03-10T04:30:29.616Z,1.70
2023-03-10T04:33:02.051Z,1.70
2023-03-10T04:35:32.734Z,1.70
2023-03-10T04:38:01.367Z,1.70
2023-03-10T04:40:30.337Z,1.70
2023-03-10T04:42:58.409Z,1.70
2023-03-10T04:45:26.664Z,1.60
2023-03-10T04:47:55.348Z,1.60
2023-03-10T04:50:24.573Z,1.60
2023-03-10T04:52:53.636Z,1.60
2023-03-10T04:55:25.940Z,1.60
2023-03-10T04:57:54.405Z,1.60
2023-03-10T05:00:22.730Z,1.60
2023-03-10T05:02:53.635Z,1.60
2023-03-10T05:05:21.783Z,1.60
2023-03-10T05:07:50.967Z,1.50
2023-03-10T05:10:20.553Z,1.60
2023-03-10T05:12:48.410Z,1.60
2023-03-10T05:15:16.287Z,1.60
2023-03-10T05:17:44.423Z,1.50
2023-03-10T05:20:14.384Z,1.50
2023-03-10T05:22:43.533Z,1.50
2023-03-10T05:25:13.648Z,1.60
2023-03-10T05:27:42.628Z,1.50
2023-03-10T05:30:15.388Z,1.60
2023-03-10T05:32:45.996Z,1.50
2023-03-10T05:35:14.726Z,1.50
2023-03-10T05:37:45.654Z,1.50
2023-03-10T05:40:19.592Z,1.60
2023-03-10T05:42:48.674Z,1.60
2023-03-10T05:45:18.116Z,1.50
2023-03-10T05:47:46.742Z,1.50
2023-03-10T05:50:17.333Z,1.50
2023-03-10T05:52:45.967Z,1.50
2023-03-10T05:55:18.288Z,1.50
2023-03-10T05:57:47.145Z,1.40
2023-03-10T06:00:16.144Z,1.50
2023-03-10T06:02:54.440Z,1.50
2023-03-10T06:05:22.375Z,1.50
2023-03-10T06:07:52.208Z,1.40
2023-03-10T06:10:21.659Z,1.50
2023-03-10T06:12:49.493Z,1.50
2023-03-10T06:15:17.435Z,1.40
2023-03-10T06:17:45.357Z,1.40
2023-03-10T06:20:13.917Z,1.40
2023-03-10T06:22:42.198Z,1.40
2023-03-10T06:25:11.165Z,1.50
2023-03-10T06:27:40.393Z,1.50
2023-03-10T06:30:09.094Z,1.50
2023-03-10T06:32:37.031Z,1.50
2023-03-10T06:35:05.719Z,1.50
2023-03-10T06:37:33.702Z,1.50
2023-03-10T06:40:01.614Z,1.50
2023-03-10T06:42:29.429Z,1.50
2023-03-10T06:44:58.709Z,1.50
2023-03-10T06:47:26.719Z,1.50
2023-03-10T06:49:55.518Z,1.50
2023-03-10T06:52:23.639Z,1.60
2023-03-10T06:54:51.536Z,1.60
2023-03-10T06:57:21.052Z,1.60
2023-03-10T06:59:49.063Z,1.60
2023-03-10T07:02:19.778Z,1.60
2023-03-10T07:04:48.077Z,1.60
2023-03-10T07:07:15.987Z,1.60
2023-03-10T07:09:43.838Z,1.70
2023-03-10T07:12:11.643Z,1.70
2023-03-10T07:14:39.536Z,1.70
2023-03-10T07:17:07.456Z,1.70
2023-03-10T07:19:38.277Z,1.80
2023-03-10T07:22:06.297Z,1.70
2023-03-10T07:24:34.324Z,1.80
2023-03-10T07:27:03.335Z,1.80
2023-03-10T07:29:31.313Z,1.90
2023-03-10T07:31:59.186Z,1.90
2023-03-10T07:34:27.086Z,1.90
2023-03-10T07:36:56.355Z,1.90
2023-03-10T07:39:24.422Z,2.00
2023-03-10T07:41:52.318Z,1.90
2023-03-10T07:44:20.270Z,1.90
2023-03-10T07:46:48.380Z,2.00
2023-03-10T07:49:16.209Z,2.10
2023-03-10T07:51:44.074Z,2.10
2023-03-10T07:54:13.983Z,2.10
2023-03-10T07:56:41.850Z,2.00
2023-03-10T07:59:09.848Z,2.10
2023-03-10T08:01:37.780Z,2.10
2023-03-10T08:04:06.267Z,2.20
2023-03-10T08:06:35.607Z,2.20
2023-03-10T08:09:03.992Z,2.20
2023-03-10T08:11:33.115Z,2.20
2023-03-10T08:14:01.127Z,2.30
2023-03-10T08:16:29.171Z,2.30
2023-03-10T08:18:57.068Z,2.30
2023-03-10T08:21:24.966Z,2.30
2023-03-10T08:23:52.867Z,2.20
2023-03-10T08:26:20.769Z,2.20
2023-03-10T08:28:50.203Z,2.20
2023-03-10T08:31:20.234Z,2.20
2023-03-10T08:33:48.950Z,2.30
2023-03-10T08:36:19.043Z,2.30
2023-03-10T08:38:47.887Z,2.20
2023-03-10T08:41:18.197Z,2.20
2023-03-10T08:43:49.183Z,2.20
2023-03-10T08:46:20.331Z,2.30
2023-03-10T08:48:48.676Z,2.20
2023-03-10T08:51:16.797Z,2.20
2023-03-10T08:53:46.956Z,2.30
2023-03-10T08:56:15.823Z,2.20
2023-03-10T08:58:44.172Z,2.20
2023-03-10T09:01:12.124Z,2.10
2023-03-10T09:03:43.967Z,2.20
2023-03-10T09:06:11.884Z,2.20
2023-03-10T09:08:41.137Z,2.20
2023-03-10T09:11:09.454Z,2.30
2023-03-10T09:13:37.452Z,2.20
2023-03-10T09:16:05.665Z,2.20
2023-03-10T09:18:33.558Z,2.30
2023-03-10T09:21:02.851Z,2.30
2023-03-10T09:23:30.732Z,2.20
2023-03-10T09:25:58.643Z,2.30
2023-03-10T09:28:26.509Z,2.30
2023-03-10T09:30:54.920Z,2.20
2023-03-10T09:33:23.573Z,2.20
2023-03-10T09:36:06.052Z,2.20
2023-03-10T09:38:37.157Z,2.30
2023-03-10T09:41:20.079Z,2.30
2023-03-10T09:43:55.373Z,2.30
2023-03-10T09:46:26.350Z,2.30
2023-03-10T09:49:01.330Z,2.30
2023-03-10T09:51:30.058Z,2.30
2023-03-10T09:54:15.447Z,2.40
2023-03-10T09:56:43.655Z,2.40
2023-03-10T09:59:15.996Z,2.40
2023-03-10T10:01:47.558Z,2.30
2023-03-10T10:04:19.073Z,2.30
2023-03-10T10:06:48.946Z,2.40
2023-03-10T10:09:28.122Z,2.40
2023-03-10T10:11:56.437Z,2.40
2023-03-10T10:14:30.019Z,2.40
2023-03-10T10:17:07.648Z,2.40
2023-03-10T10:19:37.433Z,2.40
2023-03-10T10:22:11.359Z,2.40
2023-03-10T10:24:40.634Z,2.50
2023-03-10T10:27:09.268Z,2.50
2023-03-10T10:29:42.251Z,2.50
2023-03-10T10:32:12.267Z,2.40
2023-03-10T10:34:41.474Z,2.40
2023-03-10T10:37:24.977Z,2.40
2023-03-10T10:39:56.348Z,2.40
2023-03-10T10:42:26.726Z,2.40
2023-03-10T10:44:56.007Z,2.40
2023-03-10T10:47:30.210Z,2.40
2023-03-10T10:50:18.088Z,2.40
2023-03-10T10:52:48.675Z,2.40
2023-03-10T10:55:31.559Z,2.50
2023-03-10T10:58:01.983Z,2.60
2023-03-10T11:00:32.159Z,2.60
2023-03-10T11:03:00.585Z,2.50
2023-03-10T11:05:35.988Z,2.60
2023-03-10T11:08:19.921Z,2.60
2023-03-10T11:10:55.779Z,2.50
2023-03-10T11:13:30.244Z,2.50
2023-03-10T11:16:06.259Z,2.60
2023-03-10T11:18:38.199Z,2.50
2023-03-10T11:21:13.698Z,2.50
2023-03-10T11:23:49.919Z,2.50
2023-03-10T11:26:32.948Z,2.50
2023-03-10T11:29:06.125Z,2.50
2023-03-10T11:31:42.052Z,2.60
2023-03-10T11:34:20.771Z,2.60
2023-03-10T11:36:57.564Z,2.60
2023-03-10T11:39:36.530Z,2.60
2023-03-10T11:42:11.674Z,2.80
2023-03-10T11:44:43.295Z,3.00
2023-03-10T11:47:18.680Z,2.90
2023-03-10T11:49:52.842Z,2.80
2023-03-10T11:52:24.237Z,2.80
2023-03-10T11:55:00.390Z,2.70
2023-03-10T11:57:35.516Z,2.60
2023-03-10T12:00:07.796Z,2.70
2023-03-10T12:02:45.306Z,2.70
2023-03-10T12:05:21.134Z,2.60
2023-03-10T12:07:52.949Z,2.60
2023-03-10T12:10:22.894Z,2.60
2023-03-10T12:12:54.347Z,2.60
2023-03-10T12:15:25.089Z,2.60
2023-03-10T12:17:54.720Z,2.60
2023-03-10T12:20:29.186Z,2.80
2023-03-10T12:22:58.172Z,3.00
2023-03-10T12:25:44.946Z,2.90
2023-03-10T12:28:22.430Z,2.80
2023-03-10T12:30:56.173Z,2.60
2023-03-10T12:33:44.580Z,2.70
2023-03-10T12:36:26.066Z,2.60
2023-03-10T12:38:57.465Z,2.70
2023-03-10T12:41:47.598Z,2.70
2023-03-10T12:44:38.156Z,2.70
2023-03-10T12:47:24.354Z,2.70
2023-03-10T12:49:56.656Z,2.60
2023-03-10T12:52:32.244Z,2.70
2023-03-10T12:55:20.919Z,2.70
2023-03-10T12:58:04.434Z,2.80
2023-03-10T13:00:42.204Z,2.90
2023-03-10T13:03:24.585Z,2.90
2023-03-10T13:06:05.320Z,2.90
2023-03-10T13:08:41.760Z,2.90
2023-03-10T13:11:24.977Z,3.00
2023-03-10T13:13:56.159Z,2.90
2023-03-10T13:16:25.586Z,3.00
2023-03-10T13:18:55.449Z,3.00
2023-03-10T13:21:26.419Z,2.90
2023-03-10T13:23:54.376Z,2.80
2023-03-10T13:26:23.990Z,2.90
2023-03-10T13:28:54.095Z,2.90
2023-03-10T13:31:26.070Z,2.80
2023-03-10T13:33:55.782Z,2.80
2023-03-10T13:36:34.817Z,2.70
2023-03-10T13:39:12.714Z,2.70
2023-03-10T13:41:42.103Z,2.70
2023-03-10T13:44:18.229Z,2.70
2023-03-10T13:46:52.974Z,2.70
2023-03-10T13:49:25.344Z,2.80
2023-03-10T13:51:55.002Z,2.80
2023-03-10T13:54:24.813Z,2.80
2023-03-10T13:56:54.564Z,2.80
2023-03-10T13:59:25.303Z,2.80
2023-03-10T14:01:58.133Z,2.80
2023-03-10T14:04:47.169Z,2.80
2023-03-10T14:07:18.568Z,3.00
2023-03-10T14:09:48.100Z,2.90
2023-03-10T14:12:35.155Z,3.00
2023-03-10T14:15:11.965Z,3.00
2023-03-10T14:17:42.379Z,2.90
2023-03-10T14:20:11.874Z,2.90
2023-03-10T14:22:43.130Z,2.90
2023-03-10T14:25:16.902Z,2.80
2023-03-10T14:27:46.775Z,2.80
2023-03-10T14:30:24.041Z,2.80
2023-03-10T14:32:54.228Z,2.80
2023-03-10T14:35:23.946Z,2.90
2023-03-10T14:37:53.019Z,2.80
2023-03-10T14:40:22.806Z,2.80
2023-03-10T14:42:52.281Z,2.70
2023-03-10T14:45:27.342Z,2.70
2023-03-10T14:47:59.164Z,2.60
2023-03-10T14:50:28.873Z,2.60
2023-03-10T14:52:57.065Z,2.60
2023-03-10T14:55:25.375Z,2.50
2023-03-10T14:57:59.135Z,2.60
2023-03-10T15:00:27.290Z,2.60
2023-03-10T15:02:55.136Z,2.70
2023-03-10T15:05:31.949Z,2.70
2023-03-10T15:08:06.396Z,2.70
2023-03-10T15:10:37.218Z,2.70
2023-03-10T15:13:05.524Z,2.60
2023-03-10T15:15:38.846Z,2.70
2023-03-10T15:18:07.789Z,2.70
2023-03-10T15:20:36.984Z,2.70
2023-03-10T15:23:04.928Z,2.70
2023-03-10T15:25:32.773Z,2.70
2023-03-10T15:28:00.643Z,2.70
2023-03-10T15:30:30.376Z,2.70
2023-03-10T15:32:58.331Z,2.70
2023-03-10T15:35:27.984Z,2.60
2023-03-10T15:37:58.442Z,2.60
2023-03-10T15:40:28.065Z,2.60
2023-03-10T15:42:57.309Z,2.50
2023-03-10T15:45:26.541Z,2.50
2023-03-10T15:47:54.557Z,2.50
2023-03-10T15:50:23.235Z,2.50
2023-03-10T15:52:55.383Z,2.50
2023-03-10T15:55:25.349Z,2.40
2023-03-10T15:57:53.693Z,2.50
2023-03-10T16:00:23.616Z,2.50
2023-03-10T16:02:52.058Z,2.40
2023-03-10T16:05:20.120Z,2.40
2023-03-10T16:07:48.458Z,2.40
2023-03-10T16:10:18.405Z,2.40
2023-03-10T16:12:47.753Z,2.40
2023-03-10T16:15:18.072Z,2.50
2023-03-10T16:17:46.369Z,2.40
2023-03-10T16:20:16.813Z,2.30
2023-03-10T16:22:44.687Z,2.40
2023-03-10T16:25:15.204Z,2.30
2023-03-10T16:27:44.365Z,2.40
2023-03-10T16:30:15.342Z,2.30
2023-03-10T16:32:46.061Z,2.30
2023-03-10T16:35:14.345Z,2.30
2023-03-10T16:37:42.137Z,2.30
2023-03-10T16:40:12.237Z,2.20
2023-03-10T16:42:43.155Z,2.20
2023-03-10T16:45:13.331Z,2.20
2023-03-10T16:47:43.721Z,2.20
2023-03-10T16:50:14.073Z,2.20
2023-03-10T16:52:42.943Z,2.30
2023-03-10T16:55:16.924Z,2.30
2023-03-10T16:57:45.548Z,2.30
2023-03-10T17:00:20.911Z,2.30
2023-03-10T17:02:48.951Z,2.30
2023-03-10T17:05:17.220Z,2.30
2023-03-10T17:07:55.164Z,2.40
2023-03-10T17:10:26.382Z,2.30
2023-03-10T17:12:54.310Z,2.20
2023-03-10T17:15:23.591Z,2.20
2023-03-10T17:17:51.860Z,2.30
2023-03-10T17:20:20.114Z,2.30
2023-03-10T17:22:48.091Z,2.30
2023-03-10T17:25:15.980Z,2.30
2023-03-10T17:27:43.970Z,2.30
2023-03-10T17:30:15.191Z,2.20
2023-03-10T17:32:45.100Z,2.20
2023-03-10T17:35:13.010Z,2.20
2023-03-10T17:37:40.839Z,2.10
2023-03-10T17:40:10.265Z,2.10
2023-03-10T17:42:38.041Z,2.20
2023-03-10T17:45:07.089Z,2.20
2023-03-10T17:47:34.992Z,2.20
2023-03-10T17:50:04.933Z,2.30
2023-03-10T17:52:32.739Z,2.30
2023-03-10T17:55:00.957Z,2.20
2023-03-10T17:57:28.825Z,2.20
2023-03-10T17:59:56.675Z,2.30
2023-03-10T18:02:24.683Z,2.20
2023-03-10T18:04:52.649Z,2.20
2023-03-10T18:07:21.826Z,2.20
2023-03-10T18:09:49.659Z,2.20
2023-03-10T18:12:17.708Z,2.10
2023-03-10T18:14:45.512Z,2.10
2023-03-10T18:17:13.464Z,2.10
2023-03-10T18:19:41.263Z,2.20
2023-03-10T18:22:09.120Z,2.20
2023-03-10T18:24:39.047Z,2.10
2023-03-10T18:27:07.040Z,2.10
2023-03-10T18:29:34.831Z,2.10
2023-03-10T18:32:02.660Z,2.10
2023-03-10T18:34:30.446Z,2.10
2023-03-10T18:36:58.348Z,2.00
2023-03-10T18:39:26.164Z,2.00
2023-03-10T18:41:55.950Z,2.10
2023-03-10T18:44:23.797Z,2.00
2023-03-10T18:46:51.656Z,2.00
2023-03-10T18:49:19.578Z,2.10
2023-03-10T18:51:47.435Z,2.00
2023-03-10T18:54:15.381Z,2.00
2023-03-10T18:56:43.785Z,2.00
2023-03-10T18:59:14.927Z,2.00
2023-03-10T19:01:42.756Z,2.00
2023-03-10T19:04:10.646Z,1.90
2023-03-10T19:06:38.442Z,2.00
2023-03-10T19:09:08.438Z,2.00
2023-03-10T19:11:37.907Z,2.10
2023-03-10T19:14:07.328Z,2.00
2023-03-10T19:16:36.628Z,2.00
2023-03-10T19:19:04.576Z,2.00
2023-03-10T19:21:32.428Z,2.00
2023-03-10T19:24:00.317Z,2.00
2023-03-10T19:26:28.307Z,2.00
2023-03-10T19:28:56.201Z,2.00
2023-03-10T19:31:24.084Z,2.00
2023-03-10T19:33:53.391Z,1.90
2023-03-10T19:36:21.235Z,1.90
2023-03-10T19:38:49.486Z,1.90
2023-03-10T19:41:18.801Z,1.90
2023-03-10T19:43:48.773Z,1.90
2023-03-10T19:46:17.972Z,1.90
2023-03-10T19:48:46.055Z,2.00
2023-03-10T19:51:21.869Z,1.90
2023-03-10T19:53:51.224Z,1.80
2023-03-10T19:56:19.616Z,1.80
2023-03-10T19:58:48.616Z,1.80
2023-03-10T20:01:18.082Z,1.70
2023-03-10T20:03:46.516Z,1.70
2023-03-10T20:06:14.449Z,1.70
2023-03-10T20:08:43.682Z,1.60
2023-03-10T20:11:14.691Z,1.60
2023-03-10T20:13:44.051Z,1.50
2023-03-10T20:16:14.928Z,1.40
2023-03-10T20:18:43.043Z,1.40
2023-03-10T20:21:10.844Z,1.30
2023-03-10T20:23:39.064Z,1.20
2023-03-10T20:26:10.855Z,1.30
2023-03-10T20:28:39.731Z,1.20
2023-03-10T20:31:07.672Z,1.10
2023-03-10T20:33:36.136Z,1.20
2023-03-10T20:36:04.439Z,1.20
2023-03-10T20:38:32.308Z,1.20
2023-03-10T20:41:00.106Z,1.20
2023-03-10T20:43:29.407Z,1.20
2023-03-10T20:45:57.257Z,1.30
2023-03-10T20:48:25.115Z,1.20
2023-03-10T20:50:55.241Z,1.30
2023-03-10T20:53:24.303Z,1.30
2023-03-10T20:55:52.167Z,1.30
2023-03-10T20:58:20.016Z,1.30
2023-03-10T21:00:49.508Z,1.20
2023-03-10T21:03:17.436Z,1.20
2023-03-10T21:05:45.402Z,1.20
2023-03-10T21:08:13.670Z,1.20
2023-03-10T21:10:44.360Z,1.20
2023-03-10T21:13:12.614Z,1.20
2023-03-10T21:15:40.712Z,1.30
2023-03-10T21:18:09.886Z,1.30
2023-03-10T21:20:37.752Z,1.30
2023-03-10T21:23:05.624Z,1.20
2023-03-10T21:25:33.507Z,1.20
2023-03-10T21:28:01.820Z,1.20
2023-03-10T21:30:31.834Z,1.10
2023-03-10T21:33:00.403Z,1.20
2023-03-10T21:35:34.072Z,1.10
2023-03-10T21:38:02.045Z,1.20
2023-03-10T21:40:30.208Z,1.30
2023-03-10T21:42:58.951Z,1.10
2023-03-10T21:45:28.090Z,1.10
2023-03-10T21:47:56.026Z,1.10
2023-03-10T21:50:23.964Z,1.10
2023-03-10T21:52:53.955Z,1.20
2023-03-10T21:55:23.793Z,1.10
2023-03-10T21:57:52.854Z,1.10
2023-03-10T22:00:23.229Z,1.10
2023-03-10T22:02:51.899Z,1.10
2023-03-10T22:05:20.829Z,1.10
2023-03-10T22:07:49.032Z,1.10
2023-03-10T22:10:18.950Z,1.10
2023-03-10T22:12:47.833Z,1.00
2023-03-10T22:15:18.460Z,1.10
2023-03-10T22:17:47.084Z,1.10
2023-03-10T22:20:18.275Z,1.10
2023-03-10T22:22:46.427Z,1.00
2023-03-10T22:25:14.540Z,1.00
2023-03-10T22:27:44.746Z,1.10
2023-03-10T22:30:14.262Z,1.20
2023-03-10T22:32:42.442Z,1.20
2023-03-10T22:35:11.121Z,1.10
2023-03-10T22:37:39.286Z,1.10
2023-03-10T22:40:10.277Z,1.10
2023-03-10T22:42:39.031Z,1.00
2023-03-10T22:45:13.201Z,1.10
2023-03-10T22:47:41.488Z,1.10
2023-03-10T22:50:11.834Z,1.10
2023-03-10T22:52:39.832Z,1.10
2023-03-10T22:55:08.001Z,1.10
2023-03-10T22:57:35.874Z,1.00
2023-03-10T23:00:04.089Z,1.10
2023-03-10T23:02:33.362Z,1.10
2023-03-10T23:05:01.354Z,1.00
2023-03-10T23:07:29.204Z,1.00
2023-03-10T23:09:57.089Z,1.00
2023-03-10T23:12:24.983Z,1.00
2023-03-10T23:14:52.949Z,1.00
2023-03-10T23:17:20.729Z,1.00
2023-03-10T23:19:51.145Z,1.10
2023-03-10T23:22:19.048Z,1.00
2023-03-10T23:24:46.855Z,1.00
2023-03-10T23:27:14.823Z,1.00
2023-03-10T23:29:42.704Z,1.10
2023-03-10T23:32:10.572Z,1.00
2023-03-10T23:34:38.859Z,1.00
2023-03-10T23:37:08.243Z,1.10
2023-03-10T23:39:36.192Z,1.10
2023-03-10T23:42:04.241Z,1.10
2023-03-10T23:44:32.093Z,1.10
2023-03-10T23:46:59.987Z,1.10
2023-03-10T23:49:27.853Z,1.10
2023-03-10T23:51:56.276Z,1.10
2023-03-10T23:54:25.564Z,1.10
2023-03-10T23:56:53.623Z,1.10
2023-03-10T23:59:21.414Z,1.10
